Macau International Airport

VMMC · Macao

罗盘
风向 的 风向 360° 澳门国际机场 16/34
风: 20 kt, 5 beaufort

19 kt

7 kt
改变
0 1.000 2.000 3.000 4.000 5.000
FEW 1.200 ft
SCT 2.500 ft
METAR VMMC 011930Z 36020KT 9999 FEW012 SCT025 13/11 Q1020 NOSIG

METAR 澳门国际机场 - VMMC/MFM

澳门国际机场是,Macao中的大型机场。 该机场有一条跑道: 16/34. 该领域的国际民航组织标志是VMMC 它的国际航空运输协会代码是MFM.

这份报告是针对2022年12月2日 03:30, 当地时间在澳门国际机场进行的。

机场观察

风向为360°,速度为20 kt。

可见度为10 km 或者更多。

有几云在1.200 ft的高度 和 疏云,零星散落的云朵在2.500 ft的高度。 没有观察到天花板。

温度和风寒是13 °C。 露点为11 °C,相对湿度为88%。 海平面上的气压为1020 hPa (QNH)。

白天

今天,太阳从06:47升起,在17:41降落。 这适用于澳门国际机场,世界夏令时可能有所不同。 当地时间与世界标准时间之间的时差为+8 小时。 当前,没有夏令时有效。

公司介绍

我们没有关于这个机场的公司信息。

体会

到Vliegles.nl去找飞行课程,跳伞和其他飞行体验。 浏览页面,了解澳门国际机场附近所有可用的活动。 你也可以使用搜索功能来寻找你所在地附近的特定飞行课程、跳伞或其他飞行体验。

跑道

Id 标题 侧风 逆风 侧风 %
16/34 160°-340° 7 kt 19 kt 34 %

逆风成分最大的方向会被突出显示,并用于横风计算。 这并不一定意味着这个方向在使用。

乌云

1.200 ft FEW 几云
2.500 ft SCT 疏云,零星散落的云朵

温度 & 天气

温度 13 °C
露点 11 °C
相对湿度 88%
Kp-index 3 (0-9)

白天

日出
06:47 (3:03)
中午
12:14
日落
17:41

小工具

你想在你的网站上有一个关于澳门国际机场的当前航空天气(METAR)的小部件吗?

显示HTML代码

我们和第三方通过cookies跟踪您在我们网站上的互联网行为。如果你继续,我们认为你同意我们的饼干政策